sensor_id;sensor_type;location;lat;lon;timestamp;pressure;altitude;pressure_sealevel;temperature;humidity
37170;BME280;23062;13.952;100.608;2024-01-15T00:04:41;1013.76;;;31.34;56.30
37170;BME280;23062;13.952;100.608;2024-01-15T00:09:26;1013.79;;;31.34;56.23
37170;BME280;23062;13.952;100.608;2024-01-15T00:14:14;1013.83;;;31.34;56.23
37170;BME280;23062;13.952;100.608;2024-01-15T00:19:01;1013.95;;;31.34;56.10
37170;BME280;23062;13.952;100.608;2024-01-15T00:23:46;1014.01;;;31.35;56.15
37170;BME280;23062;13.952;100.608;2024-01-15T00:28:25;1014.08;;;31.35;56.18
37170;BME280;23062;13.952;100.608;2024-01-15T00:33:10;1014.11;;;31.34;55.94
37170;BME280;23062;13.952;100.608;2024-01-15T00:37:55;1014.22;;;31.35;55.92
37170;BME280;23062;13.952;100.608;2024-01-15T00:42:39;1014.30;;;31.31;54.93
37170;BME280;23062;13.952;100.608;2024-01-15T00:47:18;1014.34;;;31.28;55.31
37170;BME280;23062;13.952;100.608;2024-01-15T00:52:01;1014.47;;;31.26;55.49
37170;BME280;23062;13.952;100.608;2024-01-15T00:56:44;1014.46;;;31.24;55.45
37170;BME280;23062;13.952;100.608;2024-01-15T01:01:25;1014.46;;;31.23;55.47
37170;BME280;23062;13.952;100.608;2024-01-15T01:06:10;1014.57;;;31.24;55.44
37170;BME280;23062;13.952;100.608;2024-01-15T01:10:49;1014.59;;;31.26;55.75
37170;BME280;23062;13.952;100.608;2024-01-15T01:15:29;1014.67;;;31.28;55.65
37170;BME280;23062;13.952;100.608;2024-01-15T01:20:12;1014.79;;;30.94;57.07
37170;BME280;23062;13.952;100.608;2024-01-15T01:24:51;1014.80;;;31.16;56.33
37170;BME280;23062;13.952;100.608;2024-01-15T01:29:35;1014.89;;;30.60;54.87
37170;BME280;23062;13.952;100.608;2024-01-15T01:34:13;1014.96;;;30.70;52.79
37170;BME280;23062;13.952;100.608;2024-01-15T01:38:57;1015.06;;;30.65;52.03
37170;BME280;23062;13.952;100.608;2024-01-15T01:43:41;1015.13;;;30.71;51.88
37170;BME280;23062;13.952;100.608;2024-01-15T01:48:25;1015.13;;;30.87;52.37
37170;BME280;23062;13.952;100.608;2024-01-15T01:53:08;1015.11;;;30.57;52.24
37170;BME280;23062;13.952;100.608;2024-01-15T01:57:51;1015.14;;;30.59;52.22
37170;BME280;23062;13.952;100.608;2024-01-15T02:02:36;1015.18;;;30.52;51.98
37170;BME280;23062;13.952;100.608;2024-01-15T02:07:19;1015.17;;;30.44;51.46
37170;BME280;23062;13.952;100.608;2024-01-15T02:12:04;1015.20;;;30.35;51.57
37170;BME280;23062;13.952;100.608;2024-01-15T02:16:49;1015.17;;;30.30;51.90
37170;BME280;23062;13.952;100.608;2024-01-15T02:21:34;1015.19;;;30.51;52.17
37170;BME280;23062;13.952;100.608;2024-01-15T02:26:18;1015.20;;;30.59;51.87
37170;BME280;23062;13.952;100.608;2024-01-15T02:31:03;1015.20;;;30.63;51.57
37170;BME280;23062;13.952;100.608;2024-01-15T02:35:45;1015.19;;;30.65;51.62
37170;BME280;23062;13.952;100.608;2024-01-15T02:40:23;1015.24;;;30.69;51.40
37170;BME280;23062;13.952;100.608;2024-01-15T02:45:07;1015.29;;;30.74;51.29
37170;BME280;23062;13.952;100.608;2024-01-15T02:49:53;1015.28;;;30.77;50.58
37170;BME280;23062;13.952;100.608;2024-01-15T02:54:33;1015.30;;;30.85;51.21
37170;BME280;23062;13.952;100.608;2024-01-15T02:59:14;1015.29;;;30.83;51.18
37170;BME280;23062;13.952;100.608;2024-01-15T03:03:58;1015.30;;;30.90;50.99
37170;BME280;23062;13.952;100.608;2024-01-15T03:08:42;1015.34;;;30.89;50.71
37170;BME280;23062;13.952;100.608;2024-01-15T03:13:26;1015.30;;;30.96;50.93
37170;BME280;23062;13.952;100.608;2024-01-15T03:18:13;1015.30;;;31.01;50.29
37170;BME280;23062;13.952;100.608;2024-01-15T03:22:57;1015.27;;;31.06;50.42
37170;BME280;23062;13.952;100.608;2024-01-15T03:27:43;1015.25;;;31.10;50.39
37170;BME280;23062;13.952;100.608;2024-01-15T03:32:35;1015.19;;;31.10;49.70
37170;BME280;23062;13.952;100.608;2024-01-15T03:37:19;1015.14;;;31.12;50.07
37170;BME280;23062;13.952;100.608;2024-01-15T03:41:55;1015.02;;;31.19;50.01
37170;BME280;23062;13.952;100.608;2024-01-15T03:46:39;1014.98;;;31.22;49.82
37170;BME280;23062;13.952;100.608;2024-01-15T03:51:25;1014.92;;;31.23;50.37
37170;BME280;23062;13.952;100.608;2024-01-15T03:56:09;1014.80;;;31.28;50.27
37170;BME280;23062;13.952;100.608;2024-01-15T04:00:51;1014.74;;;31.33;49.97
37170;BME280;23062;13.952;100.608;2024-01-15T04:05:36;1014.67;;;31.35;49.74
37170;BME280;23062;13.952;100.608;2024-01-15T04:10:18;1014.64;;;31.27;50.09
37170;BME280;23062;13.952;100.608;2024-01-15T04:15:05;1014.51;;;31.30;50.01
37170;BME280;23062;13.952;100.608;2024-01-15T04:19:49;1014.40;;;31.40;49.38
37170;BME280;23062;13.952;100.608;2024-01-15T04:24:33;1014.33;;;31.42;49.45
37170;BME280;23062;13.952;100.608;2024-01-15T04:29:11;1014.27;;;31.43;49.06
37170;BME280;23062;13.952;100.608;2024-01-15T04:33:48;1014.16;;;31.41;49.30
37170;BME280;23062;13.952;100.608;2024-01-15T04:38:30;1014.09;;;31.51;48.69
37170;BME280;23062;13.952;100.608;2024-01-15T04:43:15;1013.99;;;31.49;49.20
37170;BME280;23062;13.952;100.608;2024-01-15T04:47:53;1013.92;;;31.54;49.27
37170;BME280;23062;13.952;100.608;2024-01-15T04:52:38;1013.76;;;31.59;49.08
37170;BME280;23062;13.952;100.608;2024-01-15T04:57:22;1013.68;;;31.58;49.15
37170;BME280;23062;13.952;100.608;2024-01-15T05:02:06;1013.58;;;31.69;48.78
37170;BME280;23062;13.952;100.608;2024-01-15T05:06:50;1013.52;;;31.68;48.52
37170;BME280;23062;13.952;100.608;2024-01-15T05:11:34;1013.39;;;31.72;48.55
37170;BME280;23062;13.952;100.608;2024-01-15T05:16:19;1013.32;;;31.69;48.55
37170;BME280;23062;13.952;100.608;2024-01-15T05:21:08;1013.18;;;31.71;48.70
37170;BME280;23062;13.952;100.608;2024-01-15T05:25:45;1013.21;;;31.71;49.22
37170;BME280;23062;13.952;100.608;2024-01-15T05:30:28;1013.05;;;31.80;48.30
37170;BME280;23062;13.952;100.608;2024-01-15T05:35:12;1012.97;;;31.77;48.73
37170;BME280;23062;13.952;100.608;2024-01-15T05:39:56;1012.93;;;31.77;48.54
37170;BME280;23062;13.952;100.608;2024-01-15T05:44:39;1012.82;;;31.78;48.39
37170;BME280;23062;13.952;100.608;2024-01-15T05:49:25;1012.74;;;31.81;48.42
37170;BME280;23062;13.952;100.608;2024-01-15T05:54:08;1012.63;;;31.78;48.62
37170;BME280;23062;13.952;100.608;2024-01-15T05:58:54;1012.55;;;31.96;48.18
37170;BME280;23062;13.952;100.608;2024-01-15T06:03:36;1012.47;;;31.86;48.21
37170;BME280;23062;13.952;100.608;2024-01-15T06:08:13;1012.42;;;31.94;47.84
37170;BME280;23062;13.952;100.608;2024-01-15T06:12:58;1012.39;;;31.86;47.80
37170;BME280;23062;13.952;100.608;2024-01-15T06:17:41;1012.22;;;31.87;48.03
37170;BME280;23062;13.952;100.608;2024-01-15T06:22:27;1012.15;;;31.82;48.60
37170;BME280;23062;13.952;100.608;2024-01-15T06:27:09;1012.01;;;31.90;47.87
37170;BME280;23062;13.952;100.608;2024-01-15T06:31:53;1011.94;;;31.97;47.55
37170;BME280;23062;13.952;100.608;2024-01-15T06:36:38;1011.86;;;31.98;47.73
37170;BME280;23062;13.952;100.608;2024-01-15T06:41:14;1011.81;;;32.09;46.75
37170;BME280;23062;13.952;100.608;2024-01-15T06:45:59;1011.73;;;32.02;46.98
37170;BME280;23062;13.952;100.608;2024-01-15T06:50:41;1011.66;;;31.96;47.46
37170;BME280;23062;13.952;100.608;2024-01-15T06:55:25;1011.59;;;31.97;46.75
37170;BME280;23062;13.952;100.608;2024-01-15T07:00:09;1011.53;;;31.93;46.51
37170;BME280;23062;13.952;100.608;2024-01-15T07:04:53;1011.52;;;31.94;46.90
37170;BME280;23062;13.952;100.608;2024-01-15T07:09:30;1011.45;;;31.91;47.28
37170;BME280;23062;13.952;100.608;2024-01-15T07:14:14;1011.35;;;31.98;46.45
37170;BME280;23062;13.952;100.608;2024-01-15T07:18:57;1011.26;;;32.02;46.53
37170;BME280;23062;13.952;100.608;2024-01-15T07:23:40;1011.12;;;32.12;45.46
37170;BME280;23062;13.952;100.608;2024-01-15T07:28:24;1011.11;;;32.07;45.54
37170;BME280;23062;13.952;100.608;2024-01-15T07:33:05;1011.05;;;32.17;44.70
37170;BME280;23062;13.952;100.608;2024-01-15T07:37:48;1011.04;;;32.21;44.77
37170;BME280;23062;13.952;100.608;2024-01-15T07:42:29;1011.05;;;32.21;44.05
37170;BME280;23062;13.952;100.608;2024-01-15T07:47:14;1010.97;;;32.17;43.29
37170;BME280;23062;13.952;100.608;2024-01-15T07:51:52;1010.91;;;32.10;44.25
37170;BME280;23062;13.952;100.608;2024-01-15T07:56:56;1010.83;;;32.06;44.88
37170;BME280;23062;13.952;100.608;2024-01-15T08:01:38;1010.85;;;32.11;44.37
37170;BME280;23062;13.952;100.608;2024-01-15T08:06:16;1010.85;;;32.21;43.70
37170;BME280;23062;13.952;100.608;2024-01-15T08:10:53;1010.83;;;32.17;43.89
37170;BME280;23062;13.952;100.608;2024-01-15T08:15:37;1010.79;;;32.22;43.66
37170;BME280;23062;13.952;100.608;2024-01-15T08:20:21;1010.80;;;32.22;43.68
37170;BME280;23062;13.952;100.608;2024-01-15T08:25:06;1010.76;;;32.27;43.49
37170;BME280;23062;13.952;100.608;2024-01-15T08:29:51;1010.76;;;32.20;44.05
37170;BME280;23062;13.952;100.608;2024-01-15T08:34:32;1010.75;;;32.23;43.89
37170;BME280;23062;13.952;100.608;2024-01-15T08:39:08;1010.76;;;32.20;44.43
37170;BME280;23062;13.952;100.608;2024-01-15T08:43:51;1010.80;;;32.16;44.89
37170;BME280;23062;13.952;100.608;2024-01-15T08:48:28;1010.76;;;32.10;44.81
37170;BME280;23062;13.952;100.608;2024-01-15T08:53:12;1010.78;;;32.07;45.02
37170;BME280;23062;13.952;100.608;2024-01-15T08:57:49;1010.70;;;32.04;45.04
37170;BME280;23062;13.952;100.608;2024-01-15T09:02:33;1010.73;;;32.11;45.35
37170;BME280;23062;13.952;100.608;2024-01-15T09:07:21;1010.77;;;32.09;45.38
37170;BME280;23062;13.952;100.608;2024-01-15T09:12:13;1010.77;;;32.09;45.79
37170;BME280;23062;13.952;100.608;2024-01-15T09:16:58;1010.77;;;32.09;45.98
37170;BME280;23062;13.952;100.608;2024-01-15T09:21:34;1010.83;;;32.09;46.26
37170;BME280;23062;13.952;100.608;2024-01-15T09:26:17;1010.77;;;32.10;46.29
37170;BME280;23062;13.952;100.608;2024-01-15T09:31:01;1010.84;;;32.09;46.65
37170;BME280;23062;13.952;100.608;2024-01-15T09:35:43;1010.89;;;32.09;46.87
37170;BME280;23062;13.952;100.608;2024-01-15T09:40:30;1010.88;;;32.05;47.05
37170;BME280;23062;13.952;100.608;2024-01-15T09:45:14;1010.95;;;32.07;46.79
37170;BME280;23062;13.952;100.608;2024-01-15T09:49:53;1010.91;;;32.04;47.50
37170;BME280;23062;13.952;100.608;2024-01-15T09:54:38;1010.94;;;31.93;49.09
37170;BME280;23062;13.952;100.608;2024-01-15T09:59:21;1011.00;;;31.96;49.36
37170;BME280;23062;13.952;100.608;2024-01-15T10:04:05;1011.04;;;31.90;50.02
37170;BME280;23062;13.952;100.608;2024-01-15T10:08:43;1011.12;;;31.91;49.79
37170;BME280;23062;13.952;100.608;2024-01-15T10:13:20;1011.14;;;31.86;49.02
37170;BME280;23062;13.952;100.608;2024-01-15T10:18:05;1011.20;;;31.86;48.86
37170;BME280;23062;13.952;100.608;2024-01-15T10:22:42;1011.16;;;31.86;48.78
37170;BME280;23062;13.952;100.608;2024-01-15T10:27:19;1011.23;;;31.84;48.42
37170;BME280;23062;13.952;100.608;2024-01-15T10:31:57;1011.27;;;31.82;48.25
37170;BME280;23062;13.952;100.608;2024-01-15T10:36:45;1011.28;;;31.83;48.26
37170;BME280;23062;13.952;100.608;2024-01-15T10:41:21;1011.34;;;31.77;48.06
37170;BME280;23062;13.952;100.608;2024-01-15T10:46:04;1011.39;;;31.73;47.82
37170;BME280;23062;13.952;100.608;2024-01-15T10:50:49;1011.41;;;31.72;47.81
37170;BME280;23062;13.952;100.608;2024-01-15T10:55:32;1011.46;;;31.70;47.89
37170;BME280;23062;13.952;100.608;2024-01-15T11:00:11;1011.40;;;31.74;48.19
37170;BME280;23062;13.952;100.608;2024-01-15T11:04:57;1011.41;;;31.76;48.23
37170;BME280;23062;13.952;100.608;2024-01-15T11:09:34;1011.41;;;31.78;48.16
37170;BME280;23062;13.952;100.608;2024-01-15T11:14:38;1011.51;;;31.70;48.07
37170;BME280;23062;13.952;100.608;2024-01-15T11:19:21;1011.52;;;31.67;47.98
37170;BME280;23062;13.952;100.608;2024-01-15T11:24:05;1011.63;;;31.65;47.92
37170;BME280;23062;13.952;100.608;2024-01-15T11:28:50;1011.65;;;31.59;47.90
37170;BME280;23062;13.952;100.608;2024-01-15T11:33:37;1011.65;;;31.60;47.88
37170;BME280;23062;13.952;100.608;2024-01-15T11:38:29;1011.71;;;31.62;47.91
37170;BME280;23062;13.952;100.608;2024-01-15T11:43:12;1011.73;;;31.58;47.69
37170;BME280;23062;13.952;100.608;2024-01-15T11:52:43;1011.84;;;31.60;47.72
37170;BME280;23062;13.952;100.608;2024-01-15T11:57:22;1011.85;;;31.59;47.47
37170;BME280;23062;13.952;100.608;2024-01-15T12:02:04;1011.86;;;31.58;47.47
37170;BME280;23062;13.952;100.608;2024-01-15T12:06:48;1011.93;;;31.59;47.47
37170;BME280;23062;13.952;100.608;2024-01-15T12:11:34;1011.96;;;31.62;48.11
37170;BME280;23062;13.952;100.608;2024-01-15T12:16:15;1012.00;;;31.62;48.21
37170;BME280;23062;13.952;100.608;2024-01-15T12:20:59;1012.03;;;31.61;48.61
37170;BME280;23062;13.952;100.608;2024-01-15T12:25:43;1012.06;;;31.64;48.98
37170;BME280;23062;13.952;100.608;2024-01-15T12:30:30;1012.08;;;31.59;49.16
37170;BME280;23062;13.952;100.608;2024-01-15T12:35:16;1012.14;;;31.59;49.45
37170;BME280;23062;13.952;100.608;2024-01-15T12:40:01;1012.16;;;31.59;49.68
37170;BME280;23062;13.952;100.608;2024-01-15T12:44:48;1012.19;;;31.57;49.82
37170;BME280;23062;13.952;100.608;2024-01-15T12:49:33;1012.28;;;31.60;49.87
37170;BME280;23062;13.952;100.608;2024-01-15T12:54:10;1012.36;;;31.78;49.57
37170;BME280;23062;13.952;100.608;2024-01-15T12:58:55;1012.39;;;31.84;49.57
37170;BME280;23062;13.952;100.608;2024-01-15T13:03:40;1012.42;;;31.88;49.67
37170;BME280;23062;13.952;100.608;2024-01-15T13:08:23;1012.43;;;31.91;49.61
37170;BME280;23062;13.952;100.608;2024-01-15T13:13:07;1012.47;;;31.93;49.57
37170;BME280;23062;13.952;100.608;2024-01-15T13:17:44;1012.49;;;31.95;49.52
37170;BME280;23062;13.952;100.608;2024-01-15T13:22:22;1012.51;;;31.95;49.61
37170;BME280;23062;13.952;100.608;2024-01-15T13:27:06;1012.49;;;31.95;49.71
37170;BME280;23062;13.952;100.608;2024-01-15T13:31:45;1012.61;;;31.98;49.79
37170;BME280;23062;13.952;100.608;2024-01-15T13:36:24;1012.60;;;31.97;49.95
37170;BME280;23062;13.952;100.608;2024-01-15T13:41:07;1012.65;;;31.96;50.19
37170;BME280;23062;13.952;100.608;2024-01-15T13:45:45;1012.63;;;31.98;50.04
37170;BME280;23062;13.952;100.608;2024-01-15T13:50:29;1012.61;;;31.98;50.20
37170;BME280;23062;13.952;100.608;2024-01-15T13:55:13;1012.62;;;31.99;50.26
37170;BME280;23062;13.952;100.608;2024-01-15T13:59:57;1012.66;;;31.99;50.21
37170;BME280;23062;13.952;100.608;2024-01-15T14:04:42;1012.73;;;32.00;50.34
37170;BME280;23062;13.952;100.608;2024-01-15T14:09:25;1012.78;;;32.00;50.28
37170;BME280;23062;13.952;100.608;2024-01-15T14:14:02;1012.81;;;32.01;50.35
37170;BME280;23062;13.952;100.608;2024-01-15T14:18:44;1012.76;;;32.00;50.44
37170;BME280;23062;13.952;100.608;2024-01-15T14:23:29;1012.79;;;32.00;50.47
37170;BME280;23062;13.952;100.608;2024-01-15T14:28:07;1012.78;;;32.01;50.46
37170;BME280;23062;13.952;100.608;2024-01-15T14:32:49;1012.80;;;32.01;50.57
37170;BME280;23062;13.952;100.608;2024-01-15T14:37:32;1012.83;;;32.02;50.66
37170;BME280;23062;13.952;100.608;2024-01-15T14:42:16;1012.90;;;32.02;50.74
37170;BME280;23062;13.952;100.608;2024-01-15T14:47:00;1012.89;;;32.01;50.81
37170;BME280;23062;13.952;100.608;2024-01-15T14:51:45;1012.98;;;32.01;50.75
37170;BME280;23062;13.952;100.608;2024-01-15T14:56:29;1012.98;;;32.01;50.86
37170;BME280;23062;13.952;100.608;2024-01-15T15:01:13;1013.05;;;32.00;50.96
37170;BME280;23062;13.952;100.608;2024-01-15T15:05:56;1013.02;;;32.01;50.89
37170;BME280;23062;13.952;100.608;2024-01-15T15:10:34;1013.04;;;32.01;50.89
37170;BME280;23062;13.952;100.608;2024-01-15T15:15:20;1013.03;;;32.00;51.05
37170;BME280;23062;13.952;100.608;2024-01-15T15:20:05;1013.04;;;32.00;51.08
37170;BME280;23062;13.952;100.608;2024-01-15T15:24:45;1012.99;;;31.99;51.15
37170;BME280;23062;13.952;100.608;2024-01-15T15:29:30;1012.95;;;31.96;51.12
37170;BME280;23062;13.952;100.608;2024-01-15T15:34:14;1013.02;;;31.98;51.12
37170;BME280;23062;13.952;100.608;2024-01-15T15:38:59;1012.98;;;31.98;51.13
37170;BME280;23062;13.952;100.608;2024-01-15T15:43:43;1012.97;;;31.98;51.21
37170;BME280;23062;13.952;100.608;2024-01-15T15:48:25;1012.98;;;31.97;51.21
37170;BME280;23062;13.952;100.608;2024-01-15T15:53:01;1012.89;;;31.97;51.33
37170;BME280;23062;13.952;100.608;2024-01-15T15:57:38;1012.83;;;31.97;51.33
37170;BME280;23062;13.952;100.608;2024-01-15T16:02:17;1012.85;;;31.97;51.36
37170;BME280;23062;13.952;100.608;2024-01-15T16:07:00;1012.83;;;31.96;51.40
37170;BME280;23062;13.952;100.608;2024-01-15T16:11:45;1012.86;;;31.96;51.39
37170;BME280;23062;13.952;100.608;2024-01-15T16:16:22;1012.89;;;31.96;51.41
37170;BME280;23062;13.952;100.608;2024-01-15T16:21:06;1012.84;;;31.96;51.40
37170;BME280;23062;13.952;100.608;2024-01-15T16:25:43;1012.87;;;31.95;51.42
37170;BME280;23062;13.952;100.608;2024-01-15T16:30:26;1012.82;;;31.94;51.40
37170;BME280;23062;13.952;100.608;2024-01-15T16:35:10;1012.79;;;31.94;51.41
37170;BME280;23062;13.952;100.608;2024-01-15T16:39:54;1012.78;;;31.93;51.39
37170;BME280;23062;13.952;100.608;2024-01-15T16:44:37;1012.81;;;31.93;51.44
37170;BME280;23062;13.952;100.608;2024-01-15T16:49:19;1012.75;;;31.93;51.43
37170;BME280;23062;13.952;100.608;2024-01-15T16:55:30;1012.70;;;31.94;51.37
37170;BME280;23062;13.952;100.608;2024-01-15T17:00:13;1012.73;;;31.93;51.42
37170;BME280;23062;13.952;100.608;2024-01-15T17:04:50;1012.71;;;31.92;51.41
37170;BME280;23062;13.952;100.608;2024-01-15T17:09:34;1012.70;;;31.91;51.43
37170;BME280;23062;13.952;100.608;2024-01-15T17:14:17;1012.69;;;31.89;51.49
37170;BME280;23062;13.952;100.608;2024-01-15T17:18:54;1012.70;;;31.90;51.43
37170;BME280;23062;13.952;100.608;2024-01-15T17:23:39;1012.72;;;31.88;51.51
37170;BME280;23062;13.952;100.608;2024-01-15T17:28:23;1012.71;;;31.88;51.51
37170;BME280;23062;13.952;100.608;2024-01-15T17:33:07;1012.72;;;31.88;51.51
37170;BME280;23062;13.952;100.608;2024-01-15T17:37:51;1012.68;;;31.86;51.59
37170;BME280;23062;13.952;100.608;2024-01-15T17:42:36;1012.70;;;31.87;51.54
37170;BME280;23062;13.952;100.608;2024-01-15T17:47:17;1012.71;;;31.86;51.60
37170;BME280;23062;13.952;100.608;2024-01-15T17:51:54;1012.65;;;31.85;51.64
37170;BME280;23062;13.952;100.608;2024-01-15T17:56:39;1012.62;;;31.85;51.61
37170;BME280;23062;13.952;100.608;2024-01-15T18:01:23;1012.57;;;31.84;51.72
37170;BME280;23062;13.952;100.608;2024-01-15T18:06:08;1012.51;;;31.84;51.69
37170;BME280;23062;13.952;100.608;2024-01-15T18:10:45;1012.48;;;31.84;51.71
37170;BME280;23062;13.952;100.608;2024-01-15T18:15:24;1012.39;;;31.83;51.81
37170;BME280;23062;13.952;100.608;2024-01-15T18:20:09;1012.38;;;31.83;51.76
37170;BME280;23062;13.952;100.608;2024-01-15T18:24:53;1012.34;;;31.81;51.90
37170;BME280;23062;13.952;100.608;2024-01-15T18:29:31;1012.31;;;31.81;51.83
37170;BME280;23062;13.952;100.608;2024-01-15T18:34:09;1012.32;;;31.81;51.99
37170;BME280;23062;13.952;100.608;2024-01-15T18:38:52;1012.27;;;31.80;51.93
37170;BME280;23062;13.952;100.608;2024-01-15T18:43:40;1012.16;;;31.80;51.92
37170;BME280;23062;13.952;100.608;2024-01-15T18:48:20;1012.11;;;31.80;51.96
37170;BME280;23062;13.952;100.608;2024-01-15T18:53:04;1012.07;;;31.79;51.94
37170;BME280;23062;13.952;100.608;2024-01-15T18:57:49;1012.04;;;31.78;51.99
37170;BME280;23062;13.952;100.608;2024-01-15T19:02:34;1012.08;;;31.77;51.95
37170;BME280;23062;13.952;100.608;2024-01-15T19:07:17;1011.99;;;31.76;51.88
37170;BME280;23062;13.952;100.608;2024-01-15T19:12:01;1012.06;;;31.75;51.97
37170;BME280;23062;13.952;100.608;2024-01-15T19:16:41;1012.07;;;31.76;51.81
37170;BME280;23062;13.952;100.608;2024-01-15T19:21:23;1011.97;;;31.74;51.78
37170;BME280;23062;13.952;100.608;2024-01-15T19:26:03;1011.92;;;31.73;51.75
37170;BME280;23062;13.952;100.608;2024-01-15T19:30:44;1011.91;;;31.72;51.80
37170;BME280;23062;13.952;100.608;2024-01-15T19:35:25;1011.94;;;31.71;51.82
37170;BME280;23062;13.952;100.608;2024-01-15T19:40:06;1011.88;;;31.71;51.81
37170;BME280;23062;13.952;100.608;2024-01-15T19:44:44;1011.81;;;31.71;51.82
37170;BME280;23062;13.952;100.608;2024-01-15T19:49:28;1011.72;;;31.69;51.73
37170;BME280;23062;13.952;100.608;2024-01-15T19:54:04;1011.74;;;31.69;51.75
37170;BME280;23062;13.952;100.608;2024-01-15T19:58:42;1011.68;;;31.69;51.85
37170;BME280;23062;13.952;100.608;2024-01-15T20:03:25;1011.68;;;31.68;51.86
37170;BME280;23062;13.952;100.608;2024-01-15T20:13:11;1011.61;;;31.67;51.94
37170;BME280;23062;13.952;100.608;2024-01-15T20:17:54;1011.56;;;31.66;52.08
37170;BME280;23062;13.952;100.608;2024-01-15T20:22:39;1011.57;;;31.66;52.14
37170;BME280;23062;13.952;100.608;2024-01-15T20:27:23;1011.55;;;31.65;52.26
37170;BME280;23062;13.952;100.608;2024-01-15T20:32:02;1011.63;;;31.65;52.34
37170;BME280;23062;13.952;100.608;2024-01-15T20:36:45;1011.51;;;31.64;52.45
37170;BME280;23062;13.952;100.608;2024-01-15T20:41:30;1011.46;;;31.64;52.44
37170;BME280;23062;13.952;100.608;2024-01-15T20:46:13;1011.58;;;31.62;52.65
37170;BME280;23062;13.952;100.608;2024-01-15T20:50:50;1011.57;;;31.62;52.90
37170;BME280;23062;13.952;100.608;2024-01-15T20:55:30;1011.56;;;31.63;53.11
37170;BME280;23062;13.952;100.608;2024-01-15T21:00:08;1011.51;;;31.62;52.96
37170;BME280;23062;13.952;100.608;2024-01-15T21:04:44;1011.58;;;31.63;53.13
37170;BME280;23062;13.952;100.608;2024-01-15T21:09:21;1011.59;;;31.64;53.13
37170;BME280;23062;13.952;100.608;2024-01-15T21:19:06;1011.66;;;31.43;54.06
37170;BME280;23062;13.952;100.608;2024-01-15T21:23:42;1011.71;;;31.33;54.54
37170;BME280;23062;13.952;100.608;2024-01-15T21:28:26;1011.78;;;31.32;54.94
37170;BME280;23062;13.952;100.608;2024-01-15T21:33:10;1011.87;;;31.31;55.07
37170;BME280;23062;13.952;100.608;2024-01-15T21:37:51;1011.81;;;31.25;55.34
37170;BME280;23062;13.952;100.608;2024-01-15T21:42:27;1011.80;;;31.22;55.54
37170;BME280;23062;13.952;100.608;2024-01-15T21:47:12;1011.84;;;31.21;55.66
37170;BME280;23062;13.952;100.608;2024-01-15T21:52:18;1011.82;;;31.18;55.61
37170;BME280;23062;13.952;100.608;2024-01-15T21:56:38;1011.75;;;31.12;56.04
37170;BME280;23062;13.952;100.608;2024-01-15T22:01:18;1011.74;;;31.09;56.25
37170;BME280;23062;13.952;100.608;2024-01-15T22:06:05;1011.76;;;31.04;56.19
37170;BME280;23062;13.952;100.608;2024-01-15T22:10:50;1011.75;;;31.03;56.25
37170;BME280;23062;13.952;100.608;2024-01-15T22:15:31;1011.76;;;31.02;56.42
37170;BME280;23062;13.952;100.608;2024-01-15T22:20:16;1011.79;;;30.31;58.72
37170;BME280;23062;13.952;100.608;2024-01-15T22:25:00;1011.86;;;30.08;59.68
37170;BME280;23062;13.952;100.608;2024-01-15T22:29:37;1011.89;;;29.94;60.13
37170;BME280;23062;13.952;100.608;2024-01-15T22:34:21;1011.97;;;29.89;60.22
37170;BME280;23062;13.952;100.608;2024-01-15T22:39:04;1012.01;;;29.84;60.54
37170;BME280;23062;13.952;100.608;2024-01-15T22:43:49;1012.03;;;29.89;60.52
37170;BME280;23062;13.952;100.608;2024-01-15T22:48:35;1012.05;;;29.91;60.28
37170;BME280;23062;13.952;100.608;2024-01-15T22:53:16;1012.15;;;29.89;59.32
37170;BME280;23062;13.952;100.608;2024-01-15T22:57:59;1012.10;;;30.23;57.73
37170;BME280;23062;13.952;100.608;2024-01-15T23:02:42;1012.22;;;30.39;55.84
37170;BME280;23062;13.952;100.608;2024-01-15T23:07:20;1012.33;;;30.46;54.58
37170;BME280;23062;13.952;100.608;2024-01-15T23:12:04;1012.32;;;30.48;54.16
37170;BME280;23062;13.952;100.608;2024-01-15T23:16:49;1012.41;;;30.50;53.57
37170;BME280;23062;13.952;100.608;2024-01-15T23:21:27;1012.51;;;30.51;53.59
37170;BME280;23062;13.952;100.608;2024-01-15T23:26:05;1012.56;;;30.51;52.91
37170;BME280;23062;13.952;100.608;2024-01-15T23:30:49;1012.63;;;30.53;53.04
37170;BME280;23062;13.952;100.608;2024-01-15T23:35:34;1012.66;;;30.52;52.48
37170;BME280;23062;13.952;100.608;2024-01-15T23:40:20;1012.73;;;30.52;52.52
37170;BME280;23062;13.952;100.608;2024-01-15T23:44:59;1012.84;;;30.50;52.17
37170;BME280;23062;13.952;100.608;2024-01-15T23:49:42;1012.88;;;30.51;51.92
37170;BME280;23062;13.952;100.608;2024-01-15T23:54:24;1012.96;;;30.48;51.98
37170;BME280;23062;13.952;100.608;2024-01-15T23:59:10;1012.97;;;30.46;52.33
